createdAt,value
2022-10-01T00:01:08.754Z,15.94
2022-10-01T00:03:36.976Z,15.96
2022-10-01T00:06:12.821Z,15.86
2022-10-01T00:08:42.260Z,15.88
2022-10-01T00:11:25.406Z,15.79
2022-10-01T00:13:54.359Z,15.72
2022-10-01T00:16:26.394Z,15.86
2022-10-01T00:18:55.531Z,15.84
2022-10-01T00:21:28.972Z,15.63
2022-10-01T00:24:02.242Z,15.78
2022-10-01T00:26:36.000Z,15.68
2022-10-01T00:29:07.248Z,15.81
2022-10-01T00:31:35.370Z,15.74
2022-10-01T00:34:04.041Z,15.78
2022-10-01T00:36:32.896Z,15.72
2022-10-01T00:39:01.147Z,15.64
2022-10-01T00:41:31.292Z,15.68
2022-10-01T00:44:28.159Z,15.67
2022-10-01T00:46:58.787Z,15.59
2022-10-01T00:49:29.993Z,15.60
2022-10-01T00:52:02.620Z,15.53
2022-10-01T00:55:09.612Z,15.49
2022-10-01T00:57:37.340Z,15.51
2022-10-01T01:00:08.052Z,15.34
2022-10-01T01:02:36.843Z,15.38
2022-10-01T01:05:06.508Z,15.35
2022-10-01T01:07:35.697Z,15.39
2022-10-01T01:10:05.356Z,15.24
2022-10-01T01:12:49.177Z,15.21
2022-10-01T01:15:24.484Z,15.16
2022-10-01T01:18:02.482Z,15.10
2022-10-01T01:20:35.774Z,15.25
2022-10-01T01:23:15.546Z,15.32
2022-10-01T01:25:58.569Z,15.26
2022-10-01T01:28:47.226Z,15.23
2022-10-01T01:31:22.252Z,15.27
2022-10-01T01:33:54.111Z,15.28
2022-10-01T01:36:36.442Z,15.18
2022-10-01T01:39:07.723Z,15.13
2022-10-01T01:41:38.847Z,15.04
2022-10-01T01:44:11.151Z,15.12
2022-10-01T01:46:43.385Z,15.14
2022-10-01T01:49:12.072Z,15.11
2022-10-01T01:52:05.279Z,15.14
2022-10-01T01:54:34.847Z,15.20
2022-10-01T01:57:03.325Z,15.12
2022-10-01T01:59:32.482Z,15.14
2022-10-01T02:02:00.734Z,15.17
2022-10-01T02:04:41.859Z,15.21
2022-10-01T02:07:39.127Z,15.22
2022-10-01T02:10:47.867Z,15.26
2022-10-01T02:13:40.105Z,15.26
2022-10-01T02:16:30.992Z,15.22
2022-10-01T02:19:21.777Z,15.10
2022-10-01T02:22:07.905Z,14.98
2022-10-01T02:24:41.403Z,14.97
2022-10-01T02:27:15.705Z,15.03
2022-10-01T02:29:45.478Z,14.99
2022-10-01T02:32:16.371Z,14.98
2022-10-01T02:34:47.180Z,15.06
2022-10-01T02:37:16.562Z,15.17
2022-10-01T02:39:46.735Z,14.99
2022-10-01T02:42:17.877Z,15.09
2022-10-01T02:44:46.940Z,15.19
2022-10-01T02:47:36.352Z,15.12
2022-10-01T02:50:06.543Z,14.97
2022-10-01T02:52:49.788Z,15.07
2022-10-01T02:55:22.623Z,15.17
2022-10-01T02:57:50.675Z,15.06
2022-10-01T03:00:19.301Z,15.15
2022-10-01T03:02:47.734Z,14.95
2022-10-01T03:05:18.003Z,14.99
2022-10-01T03:07:45.651Z,14.88
2022-10-01T03:10:14.540Z,15.03
2022-10-01T03:12:43.173Z,15.02
2022-10-01T03:15:14.728Z,15.00
2022-10-01T03:17:42.145Z,14.90
2022-10-01T03:20:10.050Z,14.87
2022-10-01T03:22:37.535Z,15.08
2022-10-01T03:25:05.588Z,14.94
2022-10-01T03:27:33.231Z,14.84
2022-10-01T03:30:00.555Z,14.97
2022-10-01T03:32:28.128Z,14.96
2022-10-01T03:34:55.394Z,14.95
2022-10-01T03:37:23.808Z,14.78
2022-10-01T03:39:51.421Z,14.77
2022-10-01T03:42:18.829Z,14.77
2022-10-01T03:44:46.312Z,14.84
2022-10-01T03:47:13.658Z,14.71
2022-10-01T03:49:41.069Z,14.64
2022-10-01T03:52:08.559Z,14.61
2022-10-01T03:54:36.339Z,16.08
2022-10-01T03:57:15.945Z,17.18
2022-10-01T03:59:43.439Z,17.80
2022-10-01T04:02:11.100Z,17.56
2022-10-01T04:04:39.598Z,18.19
2022-10-01T04:07:07.948Z,18.47
2022-10-01T04:09:35.923Z,18.29
2022-10-01T04:12:03.961Z,18.05
2022-10-01T04:14:31.788Z,18.35
2022-10-01T04:16:59.710Z,18.58
2022-10-01T04:19:27.696Z,18.40
2022-10-01T04:21:55.738Z,18.57
2022-10-01T04:24:23.623Z,18.58
2022-10-01T04:26:51.929Z,18.47
2022-10-01T04:29:19.323Z,18.33
2022-10-01T04:31:47.132Z,18.23
2022-10-01T04:34:14.704Z,17.58
2022-10-01T04:36:42.190Z,17.86
2022-10-01T04:39:09.660Z,17.59
2022-10-01T04:41:37.222Z,17.44
2022-10-01T04:44:05.058Z,17.67
2022-10-01T04:46:32.609Z,17.92
2022-10-01T04:49:00.026Z,17.05
2022-10-01T04:51:27.737Z,17.78
2022-10-01T04:53:55.299Z,17.93
2022-10-01T04:56:22.858Z,17.77
2022-10-01T04:58:50.287Z,16.46
2022-10-01T05:01:17.845Z,15.50
2022-10-01T05:03:45.595Z,15.10
2022-10-01T05:06:13.506Z,14.95
2022-10-01T05:08:41.671Z,14.72
2022-10-01T05:11:09.580Z,14.69
2022-10-01T05:13:37.604Z,14.72
2022-10-01T05:16:05.518Z,14.57
2022-10-01T05:18:33.342Z,14.62
2022-10-01T05:21:08.280Z,14.61
2022-10-01T05:23:36.307Z,14.57
2022-10-01T05:26:05.535Z,14.63
2022-10-01T05:28:35.622Z,14.55
2022-10-01T05:31:04.100Z,14.59
2022-10-01T05:33:32.560Z,14.62
2022-10-01T05:36:00.690Z,14.65
2022-10-01T05:38:28.061Z,14.58
2022-10-01T05:40:55.207Z,14.82
2022-10-01T05:43:22.572Z,14.84
2022-10-01T05:45:50.042Z,14.98
2022-10-01T05:48:17.583Z,14.95
2022-10-01T05:50:45.153Z,14.94
2022-10-01T05:53:12.790Z,15.06
2022-10-01T05:55:40.046Z,15.04
2022-10-01T05:58:09.422Z,15.09
2022-10-01T06:00:38.153Z,15.10
2022-10-01T06:03:06.524Z,15.18
2022-10-01T06:05:36.164Z,15.23
2022-10-01T06:08:07.303Z,15.23
2022-10-01T06:10:34.573Z,15.39
2022-10-01T06:13:03.014Z,15.48
2022-10-01T06:15:32.315Z,15.42
2022-10-01T06:18:02.749Z,15.39
2022-10-01T06:20:30.359Z,15.29
2022-10-01T06:22:58.452Z,15.30
2022-10-01T06:25:27.303Z,15.23
2022-10-01T06:27:56.077Z,17.32
2022-10-01T06:30:28.321Z,18.52
2022-10-01T06:33:07.283Z,18.48
2022-10-01T06:35:40.118Z,18.66
2022-10-01T06:38:07.741Z,18.71
2022-10-01T06:40:35.862Z,18.66
2022-10-01T06:43:04.095Z,18.90
2022-10-01T06:45:31.873Z,19.10
2022-10-01T06:48:01.109Z,19.36
2022-10-01T06:50:29.387Z,19.19
2022-10-01T06:52:57.633Z,19.38
2022-10-01T06:55:29.467Z,19.55
2022-10-01T06:58:00.764Z,19.48
2022-10-01T07:00:30.832Z,19.22
2022-10-01T07:02:59.059Z,19.64
2022-10-01T07:05:27.842Z,20.04
2022-10-01T07:07:55.340Z,20.20
2022-10-01T07:10:23.051Z,20.25
2022-10-01T07:12:51.284Z,20.03
2022-10-01T07:15:25.842Z,20.01
2022-10-01T07:17:56.094Z,19.92
2022-10-01T07:20:24.161Z,19.81
2022-10-01T07:22:57.607Z,20.35
2022-10-01T07:25:26.270Z,20.15
2022-10-01T07:27:56.131Z,20.82
2022-10-01T07:30:26.374Z,20.48
2022-10-01T07:32:53.831Z,20.29
2022-10-01T07:35:22.106Z,20.33
2022-10-01T07:37:50.910Z,20.82
2022-10-01T07:40:19.073Z,20.41
2022-10-01T07:42:56.288Z,19.97
2022-10-01T07:45:25.094Z,20.12
2022-10-01T07:48:00.012Z,20.38
2022-10-01T07:50:29.350Z,21.24
2022-10-01T07:52:58.178Z,21.15
2022-10-01T07:55:27.965Z,21.26
2022-10-01T07:57:58.037Z,21.38
2022-10-01T08:00:26.950Z,21.36
2022-10-01T08:02:55.809Z,21.33
2022-10-01T08:05:26.420Z,21.19
2022-10-01T08:07:57.456Z,21.18
2022-10-01T08:10:24.791Z,21.30
2022-10-01T08:12:52.783Z,21.24
2022-10-01T08:15:20.349Z,21.23
2022-10-01T08:17:48.090Z,21.16
2022-10-01T08:20:15.641Z,21.32
2022-10-01T08:22:46.624Z,21.68
2022-10-01T08:25:15.622Z,21.55
2022-10-01T08:27:43.120Z,21.44
2022-10-01T08:30:10.848Z,21.77
2022-10-01T08:32:38.699Z,21.72
2022-10-01T08:35:06.674Z,21.72
2022-10-01T08:37:34.141Z,21.46
2022-10-01T08:40:02.015Z,21.48
2022-10-01T08:43:08.082Z,21.50
2022-10-01T08:45:35.492Z,21.65
2022-10-01T08:48:13.441Z,21.73
2022-10-01T08:50:55.859Z,21.65
2022-10-01T08:53:48.307Z,21.79
2022-10-01T08:56:27.956Z,21.73
2022-10-01T08:59:02.503Z,21.85
2022-10-01T09:01:31.050Z,21.91
2022-10-01T09:03:59.199Z,22.02
2022-10-01T09:06:28.069Z,22.11
2022-10-01T09:09:24.030Z,22.05
2022-10-01T09:12:14.297Z,22.09
2022-10-01T09:14:53.029Z,22.12
2022-10-01T09:17:37.560Z,22.12
2022-10-01T09:20:26.319Z,22.09
2022-10-01T09:23:02.686Z,22.12
2022-10-01T09:25:31.815Z,22.18
2022-10-01T09:28:15.773Z,22.06
2022-10-01T09:30:49.118Z,21.93
2022-10-01T09:33:21.003Z,21.82
2022-10-01T09:35:54.067Z,21.89
2022-10-01T09:38:25.109Z,22.10
2022-10-01T09:40:57.717Z,22.12
2022-10-01T09:43:31.391Z,22.35
2022-10-01T09:45:59.099Z,22.20
2022-10-01T09:48:26.527Z,22.10
2022-10-01T09:51:03.566Z,21.91
2022-10-01T09:53:38.415Z,21.86
2022-10-01T09:56:13.448Z,21.93
2022-10-01T09:58:45.870Z,22.16
2022-10-01T10:01:30.429Z,22.09
2022-10-01T10:03:58.221Z,22.38
2022-10-01T10:06:29.730Z,22.10
2022-10-01T10:08:59.190Z,22.07
2022-10-01T10:11:31.831Z,21.95
2022-10-01T10:14:01.855Z,22.12
2022-10-01T10:16:35.740Z,22.15
2022-10-01T10:19:17.487Z,22.20
2022-10-01T10:21:56.272Z,22.42
2022-10-01T10:24:26.634Z,22.34
2022-10-01T10:26:56.698Z,22.30
2022-10-01T10:29:32.634Z,22.31
2022-10-01T10:32:04.499Z,22.18
2022-10-01T10:34:38.018Z,22.25
2022-10-01T10:37:13.311Z,22.12
2022-10-01T10:39:42.630Z,22.06
2022-10-01T10:42:14.893Z,22.27
2022-10-01T10:44:44.879Z,22.32
2022-10-01T10:47:15.395Z,22.10
2022-10-01T10:49:54.568Z,22.11
2022-10-01T10:52:45.713Z,22.24
2022-10-01T10:55:28.971Z,22.21
2022-10-01T10:58:16.700Z,22.10
2022-10-01T11:00:48.179Z,22.12
2022-10-01T11:03:20.345Z,22.03
2022-10-01T11:05:47.905Z,22.07
2022-10-01T11:08:21.518Z,22.03
2022-10-01T11:11:01.450Z,22.00
2022-10-01T11:13:31.565Z,22.09
2022-10-01T11:16:01.661Z,22.13
2022-10-01T11:18:53.558Z,22.04
2022-10-01T11:21:33.804Z,22.15
2022-10-01T11:24:19.473Z,22.35
2022-10-01T11:26:55.468Z,22.28
2022-10-01T11:29:54.027Z,22.26
2022-10-01T11:32:21.303Z,22.20
2022-10-01T11:34:51.696Z,22.11
2022-10-01T11:37:48.272Z,22.05
2022-10-01T11:40:27.207Z,22.27
2022-10-01T11:43:00.822Z,22.24
2022-10-01T11:45:34.990Z,22.01
2022-10-01T11:48:14.358Z,22.11
2022-10-01T11:50:46.524Z,22.18
2022-10-01T11:53:28.316Z,22.16
2022-10-01T11:56:17.522Z,22.04
2022-10-01T11:58:53.715Z,22.10
2022-10-01T12:01:24.057Z,22.14
2022-10-01T12:03:54.396Z,22.09
2022-10-01T12:06:33.584Z,21.98
2022-10-01T12:09:39.778Z,22.01
2022-10-01T12:12:19.205Z,22.00
2022-10-01T12:14:55.564Z,21.96
2022-10-01T12:17:28.725Z,21.92
2022-10-01T12:19:58.561Z,21.88
2022-10-01T12:22:36.053Z,21.84
2022-10-01T12:25:03.756Z,21.81
2022-10-01T12:27:44.807Z,21.88
2022-10-01T12:30:15.213Z,21.89
2022-10-01T12:32:54.493Z,21.86
2022-10-01T12:35:37.088Z,21.91
2022-10-01T12:38:07.437Z,21.97
2022-10-01T12:40:46.047Z,22.01
2022-10-01T12:43:37.383Z,22.01
2022-10-01T12:46:23.437Z,22.06
2022-10-01T12:49:15.629Z,22.12
2022-10-01T12:52:09.141Z,22.12
2022-10-01T12:54:39.449Z,22.12
2022-10-01T12:57:15.889Z,22.11
2022-10-01T13:00:05.255Z,22.06
2022-10-01T13:02:35.448Z,22.24
2022-10-01T13:05:22.765Z,22.20
2022-10-01T13:08:07.434Z,22.06
2022-10-01T13:10:46.948Z,22.15
2022-10-01T13:13:32.655Z,22.05
2022-10-01T13:16:05.276Z,21.98
2022-10-01T13:18:48.459Z,21.96
2022-10-01T13:21:29.481Z,21.99
2022-10-01T13:24:11.936Z,21.97
2022-10-01T13:26:39.540Z,22.18
2022-10-01T13:29:06.840Z,22.23
2022-10-01T13:31:59.485Z,22.19
2022-10-01T13:34:32.773Z,22.35
2022-10-01T13:37:12.211Z,22.22
2022-10-01T13:39:39.732Z,22.14
2022-10-01T13:42:14.924Z,22.14
2022-10-01T13:44:42.462Z,22.13
2022-10-01T13:47:09.773Z,22.23
2022-10-01T13:49:37.876Z,22.33
2022-10-01T13:52:05.283Z,22.32
2022-10-01T13:54:38.197Z,22.18
2022-10-01T13:57:29.120Z,21.95
2022-10-01T13:59:59.700Z,22.01
2022-10-01T14:02:34.032Z,21.86
2022-10-01T14:05:29.062Z,21.70
2022-10-01T14:08:12.066Z,21.62
2022-10-01T14:10:45.579Z,21.52
2022-10-01T14:13:17.320Z,21.53
2022-10-01T14:15:48.664Z,21.48
2022-10-01T14:18:20.868Z,21.45
2022-10-01T14:21:11.295Z,21.38
2022-10-01T14:23:41.299Z,21.27
2022-10-01T14:26:16.256Z,21.21
2022-10-01T14:29:19.442Z,21.23
2022-10-01T14:31:51.376Z,21.44
2022-10-01T14:34:30.866Z,21.56
2022-10-01T14:36:59.199Z,21.32
2022-10-01T14:39:29.950Z,21.20
2022-10-01T14:41:57.974Z,21.07
2022-10-01T14:44:30.949Z,21.06
2022-10-01T14:47:21.746Z,21.03
2022-10-01T14:49:50.205Z,21.07
2022-10-01T14:52:27.861Z,21.02
2022-10-01T14:55:08.806Z,21.37
2022-10-01T14:57:46.280Z,21.46
2022-10-01T15:00:22.519Z,21.18
2022-10-01T15:02:53.471Z,21.07
2022-10-01T15:05:26.749Z,21.03
2022-10-01T15:07:54.716Z,21.02
2022-10-01T15:10:26.667Z,21.13
2022-10-01T15:12:55.614Z,21.24
2022-10-01T15:15:33.327Z,21.56
2022-10-01T15:18:04.315Z,21.51
2022-10-01T15:20:31.642Z,21.40
2022-10-01T15:23:01.494Z,21.19
2022-10-01T15:25:32.072Z,21.34
2022-10-01T15:27:59.324Z,21.48
2022-10-01T15:30:27.724Z,21.70
2022-10-01T15:32:55.250Z,21.90
2022-10-01T15:35:23.928Z,22.20
2022-10-01T15:37:52.499Z,22.33
2022-10-01T15:40:30.190Z,22.26
2022-10-01T15:43:23.169Z,22.01
2022-10-01T15:46:11.763Z,21.55
2022-10-01T15:48:39.052Z,21.26
2022-10-01T15:51:16.005Z,21.22
2022-10-01T15:53:44.286Z,21.24
2022-10-01T15:56:15.763Z,21.21
2022-10-01T15:59:02.671Z,21.19
2022-10-01T16:01:38.077Z,20.78
2022-10-01T16:04:14.318Z,21.47
2022-10-01T16:06:45.324Z,21.37
2022-10-01T16:09:18.507Z,21.27
2022-10-01T16:12:16.931Z,20.98
2022-10-01T16:14:55.919Z,21.11
2022-10-01T16:17:29.186Z,20.83
2022-10-01T16:19:59.399Z,21.43
2022-10-01T16:22:34.950Z,21.02
2022-10-01T16:25:05.563Z,21.32
2022-10-01T16:27:54.906Z,21.19
2022-10-01T16:30:23.375Z,21.08
2022-10-01T16:32:50.573Z,21.54
2022-10-01T16:35:20.012Z,21.60
2022-10-01T16:37:48.539Z,21.10
2022-10-01T16:40:20.387Z,20.99
2022-10-01T16:42:48.566Z,21.35
2022-10-01T16:45:18.431Z,21.14
2022-10-01T16:47:46.407Z,21.30
2022-10-01T16:50:16.514Z,20.79
2022-10-01T16:52:44.349Z,21.62
2022-10-01T16:55:18.180Z,21.71
2022-10-01T16:57:45.306Z,21.40
2022-10-01T17:00:16.994Z,21.32
2022-10-01T17:02:44.378Z,21.10
2022-10-01T17:05:24.090Z,21.54
2022-10-01T17:07:52.492Z,21.27
2022-10-01T17:10:22.301Z,20.98
2022-10-01T17:12:50.276Z,21.05
2022-10-01T17:15:20.429Z,20.82
2022-10-01T17:17:47.587Z,21.13
2022-10-01T17:20:15.401Z,21.37
2022-10-01T17:22:42.911Z,21.14
2022-10-01T17:25:21.791Z,20.90
2022-10-01T17:27:50.964Z,20.60
2022-10-01T17:30:18.233Z,20.59
2022-10-01T17:32:45.530Z,20.75
2022-10-01T17:35:14.004Z,20.74
2022-10-01T17:37:42.336Z,20.67
2022-10-01T17:40:10.487Z,20.65
2022-10-01T17:42:38.365Z,20.69
2022-10-01T17:45:09.038Z,20.59
2022-10-01T17:47:36.474Z,20.91
2022-10-01T17:50:04.377Z,20.79
2022-10-01T17:52:31.553Z,20.99
2022-10-01T17:54:58.878Z,21.19
2022-10-01T17:57:26.344Z,20.82
2022-10-01T17:59:53.585Z,20.95
2022-10-01T18:02:40.460Z,21.02
2022-10-01T18:05:08.693Z,21.07
2022-10-01T18:07:36.682Z,21.04
2022-10-01T18:10:10.574Z,21.18
2022-10-01T18:12:37.742Z,21.02
2022-10-01T18:15:05.597Z,20.79
2022-10-01T18:17:33.627Z,20.52
2022-10-01T18:20:01.518Z,20.50
2022-10-01T18:22:28.864Z,20.61
2022-10-01T18:24:56.119Z,20.59
2022-10-01T18:27:23.429Z,20.53
2022-10-01T18:29:50.543Z,20.71
2022-10-01T18:32:24.440Z,21.11
2022-10-01T18:34:54.685Z,21.08
2022-10-01T18:37:47.862Z,20.88
2022-10-01T18:40:18.094Z,21.30
2022-10-01T18:42:54.804Z,21.41
2022-10-01T18:45:55.860Z,21.29
2022-10-01T18:48:41.941Z,21.26
2022-10-01T18:51:52.614Z,21.32
2022-10-01T18:54:29.293Z,21.17
2022-10-01T18:57:02.069Z,21.23
2022-10-01T18:59:29.507Z,20.92
2022-10-01T19:01:56.698Z,21.22
2022-10-01T19:04:41.991Z,21.23
2022-10-01T19:07:40.480Z,20.91
2022-10-01T19:10:17.281Z,20.26
2022-10-01T19:13:19.053Z,19.81
2022-10-01T19:16:14.089Z,19.51
2022-10-01T19:19:00.874Z,19.00
2022-10-01T19:21:33.857Z,18.87
2022-10-01T19:24:25.820Z,18.88
2022-10-01T19:27:19.499Z,19.00
2022-10-01T19:30:02.539Z,19.03
2022-10-01T19:32:45.730Z,19.07
2022-10-01T19:35:26.117Z,19.01
2022-10-01T19:38:04.064Z,18.95
2022-10-01T19:40:40.793Z,18.92
2022-10-01T19:43:29.605Z,18.92
2022-10-01T19:46:37.693Z,18.94
2022-10-01T19:49:14.755Z,18.87
2022-10-01T19:51:51.621Z,18.88
2022-10-01T19:54:23.240Z,18.94
2022-10-01T19:56:57.650Z,18.85
2022-10-01T19:59:28.667Z,18.84
2022-10-01T20:02:01.377Z,18.71
2022-10-01T20:04:47.917Z,18.67
2022-10-01T20:07:26.915Z,18.68
2022-10-01T20:10:05.274Z,18.64
2022-10-01T20:12:48.650Z,18.58
2022-10-01T20:15:21.626Z,18.53
2022-10-01T20:18:10.924Z,18.51
2022-10-01T20:20:56.918Z,18.63
2022-10-01T20:23:38.026Z,18.65
2022-10-01T20:26:08.248Z,18.72
2022-10-01T20:28:35.683Z,18.67
2022-10-01T20:31:16.234Z,18.60
2022-10-01T20:33:49.821Z,18.67
2022-10-01T20:36:35.148Z,18.65
2022-10-01T20:39:24.580Z,18.61
2022-10-01T20:41:54.320Z,18.63
2022-10-01T20:44:42.585Z,18.66
2022-10-01T20:47:19.187Z,18.77
2022-10-01T20:49:54.906Z,18.78
2022-10-01T20:52:45.332Z,18.75
2022-10-01T20:55:26.215Z,18.73
2022-10-01T20:57:58.173Z,18.88
2022-10-01T21:00:27.854Z,18.94
2022-10-01T21:03:22.749Z,18.99
2022-10-01T21:05:50.007Z,18.88
2022-10-01T21:08:32.047Z,18.78
2022-10-01T21:11:04.900Z,18.68
2022-10-01T21:13:56.098Z,18.71
2022-10-01T21:16:51.092Z,18.70
2022-10-01T21:19:38.769Z,18.68
2022-10-01T21:22:27.715Z,18.58
2022-10-01T21:25:32.314Z,18.56
2022-10-01T21:28:15.000Z,18.52
2022-10-01T21:31:04.393Z,18.52
2022-10-01T21:33:37.675Z,18.43
2022-10-01T21:36:27.431Z,18.52
2022-10-01T21:39:38.094Z,18.56
2022-10-01T21:42:16.090Z,18.43
2022-10-01T21:44:52.019Z,18.37
2022-10-01T21:47:34.510Z,18.38
2022-10-01T21:50:25.367Z,18.39
2022-10-01T21:53:30.075Z,18.32
2022-10-01T21:55:57.278Z,18.28
2022-10-01T21:58:27.985Z,18.14
2022-10-01T22:01:15.736Z,18.07
2022-10-01T22:03:50.801Z,18.15
2022-10-01T22:06:27.790Z,18.23
2022-10-01T22:09:24.299Z,18.22
2022-10-01T22:11:56.177Z,18.18
2022-10-01T22:14:23.935Z,18.12
2022-10-01T22:16:57.632Z,18.21
2022-10-01T22:19:38.824Z,18.25
2022-10-01T22:22:36.539Z,18.19
2022-10-01T22:25:04.782Z,18.18
2022-10-01T22:27:42.372Z,18.27
2022-10-01T22:30:12.003Z,18.24
2022-10-01T22:32:45.329Z,18.11
2022-10-01T22:35:27.361Z,18.19
2022-10-01T22:38:10.389Z,18.15
2022-10-01T22:40:49.576Z,18.10
2022-10-01T22:43:17.002Z,18.02
2022-10-01T22:45:55.925Z,17.92
2022-10-01T22:49:04.731Z,17.90
2022-10-01T22:52:09.097Z,17.96
2022-10-01T22:55:01.043Z,17.99
2022-10-01T22:57:46.160Z,17.99
2022-10-01T23:00:15.289Z,18.03
2022-10-01T23:03:06.827Z,18.02
2022-10-01T23:05:50.771Z,17.93
2022-10-01T23:08:37.827Z,18.06
2022-10-01T23:11:05.066Z,18.02
2022-10-01T23:13:42.731Z,17.88
2022-10-01T23:16:28.685Z,17.81
2022-10-01T23:19:14.278Z,17.81
2022-10-01T23:21:59.734Z,17.86
2022-10-01T23:25:05.786Z,17.83
2022-10-01T23:27:46.023Z,17.73
2022-10-01T23:30:16.390Z,17.71
2022-10-01T23:32:55.694Z,17.69
2022-10-01T23:35:34.733Z,17.72
2022-10-01T23:38:26.669Z,17.69
2022-10-01T23:40:58.438Z,17.68
2022-10-01T23:43:33.070Z,17.66
2022-10-01T23:46:07.909Z,17.62
2022-10-01T23:48:38.230Z,17.61
2022-10-01T23:51:17.311Z,17.61
2022-10-01T23:53:53.080Z,17.58
2022-10-01T23:56:25.522Z,17.54
2022-10-01T23:59:15.451Z,17.56
